Time;durP1;ratioP1;P1;durP2;ratioP2;P2;SDS_P1;SDS_P2;PMS_P1;PMS_P2;Temp;Humidity;BMP_temperature;BMP_pressure;BME280_temperature;BME280_humidity;BME280_pressure;Samples;Min_cycle;Max_cycle;Signal;HPM_P1;HPM_P2
2022/06/09 00:01:49;;;;;;;3.47;2.63;;;25.20;50.90;;;;;;5053168;28;20033;-72
2022/06/09 00:04:16;;;;;;;3.58;2.78;;;25.20;50.90;;;;;;5053420;28;20357;-72
2022/06/09 00:07:05;;;;;;;3.42;2.80;;;25.20;50.90;;;;;;5053027;28;20040;-72
2022/06/09 00:09:35;;;;;;;4.35;2.92;;;25.20;51.60;;;;;;5053361;28;20037;-72
2022/06/09 00:12:01;;;;;;;4.60;2.95;;;25.20;50.90;;;;;;5053318;28;20120;-71
2022/06/09 00:14:27;;;;;;;3.13;2.80;;;25.20;51.00;;;;;;5035550;28;20519;-71
2022/06/09 00:16:53;;;;;;;3.50;2.67;;;25.10;50.90;;;;;;5053128;28;20498;-71
2022/06/09 00:19:19;;;;;;;2.72;2.50;;;25.10;51.00;;;;;;5053231;28;20025;-71
2022/06/09 00:21:45;;;;;;;2.60;2.40;;;25.10;51.00;;;;;;5057212;28;20078;-72
2022/06/09 00:24:11;;;;;;;4.32;2.55;;;25.10;51.00;;;;;;5039248;28;20586;-72
2022/06/09 00:26:37;;;;;;;2.75;2.50;;;25.10;51.10;;;;;;5056764;28;20123;-72
2022/06/09 00:29:03;;;;;;;3.35;2.53;;;25.10;51.00;;;;;;5057059;28;20033;-71
2022/06/09 00:31:29;;;;;;;3.85;3.10;;;25.00;50.90;;;;;;5057159;28;20036;-71
2022/06/09 00:33:55;;;;;;;3.50;2.80;;;25.00;50.90;;;;;;5057085;28;20021;-70
2022/06/09 00:36:21;;;;;;;3.92;2.80;;;25.00;50.90;;;;;;5057038;28;20029;-71
2022/06/09 00:38:46;;;;;;;5.00;3.35;;;25.00;51.00;;;;;;5061527;28;20084;-70
2022/06/09 00:41:12;;;;;;;4.60;3.50;;;25.00;51.00;;;;;;5076716;28;20028;-70
2022/06/09 00:43:41;;;;;;;6.40;3.90;;;25.00;51.00;;;;;;5076911;28;20093;-70
2022/06/09 00:46:38;;;;;;;5.25;3.70;;;24.90;51.10;;;;;;5076717;28;20070;-71
2022/06/09 00:49:12;;;;;;;6.35;4.07;;;24.80;51.70;;;;;;5060647;28;20417;-71
2022/06/09 00:51:49;;;;;;;;;;;24.70;51.10;;;;;;5076956;28;20474;-71
2022/06/09 00:54:22;;;;;;;4.40;3.30;;;24.70;52.30;;;;;;5076915;28;20251;-71
2022/06/09 00:56:57;;;;;;;5.85;3.53;;;24.70;51.20;;;;;;5076745;28;20029;-71
2022/06/09 00:59:26;;;;;;;6.28;4.05;;;24.60;51.30;;;;;;5058750;28;20024;-72
2022/06/09 01:01:57;;;;;;;5.28;3.95;;;24.60;51.40;;;;;;5057765;28;20390;-71
2022/06/09 01:04:23;;;;;;;4.70;3.80;;;24.50;51.40;;;;;;5076539;28;20025;-71
2022/06/09 01:06:56;;;;;;;5.72;3.60;;;24.40;51.50;;;;;;5058862;28;20386;-72
2022/06/09 01:09:25;;;;;;;4.10;3.50;;;24.40;51.60;;;;;;5076699;28;20421;-72
2022/06/09 01:11:53;;;;;;;5.45;3.80;;;24.30;51.70;;;;;;5076304;28;20477;-72
2022/06/09 01:14:22;;;;;;;5.57;3.75;;;24.30;51.70;;;;;;5076380;28;20040;-72
2022/06/09 01:16:59;;;;;;;4.13;3.63;;;24.30;51.90;;;;;;5075970;28;20024;-72
2022/06/09 01:19:48;;;;;;;5.70;3.67;;;24.20;51.90;;;;;;5076670;28;20028;-72
2022/06/09 01:22:16;;;;;;;4.38;3.35;;;24.20;52.20;;;;;;5076085;28;20048;-72
2022/06/09 01:25:10;;;;;;;5.32;3.50;;;24.20;52.00;;;;;;5075915;28;20382;-72
2022/06/09 01:27:47;;;;;;;5.45;3.80;;;24.20;52.60;;;;;;5075986;28;20085;-72
2022/06/09 01:30:32;;;;;;;4.50;3.80;;;24.10;52.20;;;;;;5075909;28;20029;-71
2022/06/09 01:33:02;;;;;;;;;;;24.10;52.40;;;;;;5075467;28;20024;-72
2022/06/09 01:35:47;;;;;;;4.57;3.30;;;24.00;53.10;;;;;;5075529;28;19962;-72
2022/06/09 01:38:12;;;;;;;4.05;3.50;;;24.00;52.60;;;;;;5075819;28;20029;-72
2022/06/09 01:40:38;;;;;;;4.70;3.65;;;24.00;52.00;;;;;;5076167;28;20048;-72
2022/06/09 01:43:05;;;;;;;5.72;3.83;;;24.00;52.00;;;;;;5076007;28;20028;-72
2022/06/09 01:45:51;;;;;;;4.95;3.75;;;24.00;52.10;;;;;;5075510;28;20502;-72
2022/06/09 01:48:19;;;;;;;5.65;4.07;;;23.90;52.70;;;;;;5075706;28;20032;-72
2022/06/09 01:51:09;;;;;;;5.88;4.07;;;23.90;52.20;;;;;;5075374;28;20036;-72
2022/06/09 01:53:43;;;;;;;5.28;4.22;;;23.90;52.80;;;;;;5075391;28;20113;-72
2022/06/09 01:56:15;;;;;;;5.78;3.55;;;23.90;52.50;;;;;;5075325;28;20491;-72
2022/06/09 01:58:58;;;;;;;5.88;4.20;;;23.80;52.60;;;;;;5075494;28;20024;-72
2022/06/09 02:01:30;;;;;;;5.82;3.80;;;23.80;52.90;;;;;;5057638;28;20463;-72
2022/06/09 02:04:00;;;;;;;5.65;3.70;;;23.80;52.80;;;;;;5057440;28;20488;-73
2022/06/09 02:06:27;;;;;;;5.85;4.10;;;23.80;52.90;;;;;;5075552;28;20554;-72
2022/06/09 02:08:53;;;;;;;5.43;3.90;;;23.80;52.90;;;;;;5075582;28;20387;-72
2022/06/09 02:11:20;;;;;;;5.15;3.50;;;23.80;52.90;;;;;;5057392;28;20036;-72
2022/06/09 02:13:52;;;;;;;5.03;4.00;;;23.80;52.90;;;;;;5075354;28;20028;-72
2022/06/09 02:16:21;;;;;;;6.82;4.35;;;23.80;52.90;;;;;;5057263;28;20101;-72
2022/06/09 02:18:51;;;;;;;6.05;3.88;;;23.80;52.90;;;;;;5075238;28;20020;-72
2022/06/09 02:21:24;;;;;;;5.38;3.92;;;23.80;52.90;;;;;;5056785;28;20039;-71
2022/06/09 02:23:51;;;;;;;5.80;4.28;;;23.90;52.90;;;;;;5075251;28;20052;-72
2022/06/09 02:26:17;;;;;;;5.22;4.03;;;23.90;52.80;;;;;;5074881;28;20489;-72
2022/06/09 02:28:44;;;;;;;5.70;3.90;;;23.90;52.70;;;;;;5074893;28;20103;-72
2022/06/09 02:31:10;;;;;;;8.25;3.80;;;23.90;52.70;;;;;;5074648;28;20398;-72
2022/06/09 02:33:35;;;;;;;5.10;3.92;;;23.90;52.80;;;;;;5074639;28;20028;-72
2022/06/09 02:36:01;;;;;;;6.10;4.00;;;23.90;52.70;;;;;;5074959;28;20021;-71
2022/06/09 02:38:27;;;;;;;4.55;4.10;;;23.80;52.70;;;;;;5056669;28;20029;-71
2022/06/09 02:40:56;;;;;;;5.20;4.07;;;23.90;52.70;;;;;;5074624;28;20036;-71
2022/06/09 02:43:23;;;;;;;4.18;3.78;;;23.80;52.70;;;;;;5056298;28;20044;-71
2022/06/09 02:45:50;;;;;;;4.63;3.63;;;23.80;52.80;;;;;;5074279;28;20107;-71
2022/06/09 02:48:17;;;;;;;6.57;4.07;;;23.80;52.90;;;;;;5074350;28;20025;-72
2022/06/09 02:50:43;;;;;;;7.45;4.25;;;23.80;52.90;;;;;;5057037;28;20028;-72
2022/06/09 02:53:09;;;;;;;6.05;4.03;;;23.80;52.80;;;;;;5074187;28;20135;-72
2022/06/09 02:55:35;;;;;;;7.07;4.10;;;23.80;52.80;;;;;;5074437;28;20078;-72
2022/06/09 02:58:01;;;;;;;6.13;4.03;;;23.80;52.80;;;;;;5074290;28;20033;-71
2022/06/09 03:00:27;;;;;;;4.53;3.60;;;23.90;53.60;;;;;;5056061;28;20025;-71
2022/06/09 03:03:02;;;;;;;5.18;3.67;;;23.90;53.10;;;;;;5073914;28;20031;-71
2022/06/09 03:05:31;;;;;;;5.03;3.90;;;23.90;53.10;;;;;;5056265;28;20031;-72
2022/06/09 03:07:57;;;;;;;5.00;3.95;;;23.90;53.00;;;;;;5056254;28;20040;-72
2022/06/09 03:10:23;;;;;;;4.63;3.90;;;23.90;53.10;;;;;;5073950;28;20107;-72
2022/06/09 03:12:49;;;;;;;5.13;4.05;;;23.90;53.10;;;;;;5073986;28;20029;-72
2022/06/09 03:15:17;;;;;;;5.10;4.13;;;23.90;53.20;;;;;;5073982;28;20027;-72
2022/06/09 03:17:43;;;;;;;5.63;4.10;;;24.00;53.40;;;;;;5073808;28;20374;-72
2022/06/09 03:20:14;;;;;;;4.70;3.90;;;23.90;53.30;;;;;;5056068;28;20020;-71
2022/06/09 03:22:40;;;;;;;7.80;4.07;;;24.00;53.40;;;;;;5074436;28;20067;-71
2022/06/09 03:25:06;;;;;;;4.68;3.95;;;24.00;53.40;;;;;;5056138;28;20056;-72
2022/06/09 03:27:32;;;;;;;7.30;4.05;;;24.10;53.40;;;;;;5074025;28;20040;-71
2022/06/09 03:30:01;;;;;;;6.45;4.05;;;24.10;53.40;;;;;;5073423;28;20024;-72
2022/06/09 03:32:27;;;;;;;6.40;4.32;;;24.10;53.40;;;;;;5073824;28;20075;-71
2022/06/09 03:34:53;;;;;;;5.28;3.53;;;24.20;53.50;;;;;;5074001;28;20034;-71
2022/06/09 03:37:19;;;;;;;5.85;4.30;;;24.20;53.50;;;;;;5073677;28;20514;-71
2022/06/09 03:39:44;;;;;;;4.45;3.88;;;24.20;53.50;;;;;;5073825;28;20094;-72
2022/06/09 03:42:10;;;;;;;5.35;4.07;;;24.20;53.50;;;;;;5073499;28;20181;-73
2022/06/09 03:44:36;;;;;;;5.47;3.90;;;24.20;53.60;;;;;;5073323;28;20459;-72
2022/06/09 03:47:01;;;;;;;6.93;4.45;;;24.20;53.50;;;;;;5073359;28;20075;-72
2022/06/09 03:49:27;;;;;;;5.63;3.70;;;24.30;53.60;;;;;;5073901;28;20028;-72
2022/06/09 03:51:53;;;;;;;4.55;3.50;;;24.30;53.60;;;;;;5073485;28;20052;-73
2022/06/09 03:54:18;;;;;;;4.45;3.92;;;24.40;53.60;;;;;;5074277;28;20109;-71
2022/06/09 03:56:44;;;;;;;4.05;3.38;;;24.40;53.60;;;;;;5079758;28;20162;-71
2022/06/09 03:59:13;;;;;;;6.78;3.60;;;24.40;53.60;;;;;;5079839;28;20021;-72
2022/06/09 04:01:39;;;;;;;4.70;3.50;;;24.50;53.60;;;;;;5080055;28;20056;-72
2022/06/09 04:04:04;;;;;;;4.53;3.70;;;24.50;53.60;;;;;;5080022;28;20021;-73
2022/06/09 04:06:30;;;;;;;4.88;3.67;;;24.50;53.50;;;;;;5079942;28;20576;-72
2022/06/09 04:08:56;;;;;;;4.38;3.50;;;24.60;53.60;;;;;;5062162;28;20388;-73
2022/06/09 04:11:23;;;;;;;5.10;3.75;;;24.60;53.60;;;;;;5079825;28;20035;-72
2022/06/09 04:13:49;;;;;;;5.28;3.80;;;24.60;53.50;;;;;;5079865;28;20383;-73
2022/06/09 04:16:31;;;;;;;6.25;4.20;;;24.70;53.60;;;;;;5079732;28;20417;-73
2022/06/09 04:19:00;;;;;;;4.95;3.50;;;24.70;53.60;;;;;;5080534;28;20059;-72
2022/06/09 04:21:28;;;;;;;5.65;3.85;;;24.80;53.60;;;;;;5079981;28;20100;-70
2022/06/09 04:23:55;;;;;;;5.90;3.75;;;24.80;53.50;;;;;;5079963;28;20099;-72
2022/06/09 04:26:25;;;;;;;5.35;3.72;;;24.90;53.60;;;;;;5079764;28;20020;-72
2022/06/09 04:28:51;;;;;;;4.72;3.80;;;24.90;53.60;;;;;;5080083;28;20035;-72
2022/06/09 04:31:17;;;;;;;5.85;3.90;;;24.90;53.60;;;;;;5061848;28;20124;-72
2022/06/09 04:33:44;;;;;;;4.72;3.97;;;24.90;53.60;;;;;;5061832;28;20021;-72
2022/06/09 04:36:11;;;;;;;4.80;3.95;;;24.90;53.70;;;;;;5079911;28;20489;-73
2022/06/09 04:38:37;;;;;;;4.25;3.60;;;24.90;53.70;;;;;;5079617;28;20052;-72
2022/06/09 04:41:11;;;;;;;4.30;3.55;;;25.00;53.80;;;;;;5079800;28;20024;-72
2022/06/09 04:43:42;;;;;;;4.35;3.42;;;25.00;53.70;;;;;;5079749;28;20031;-72
2022/06/09 04:46:09;;;;;;;5.25;3.67;;;25.10;53.80;;;;;;5079832;28;20033;-72
2022/06/09 04:48:36;;;;;;;4.60;3.83;;;25.10;53.80;;;;;;5056792;28;20040;-73
2022/06/09 04:51:05;;;;;;;6.35;4.10;;;25.10;53.80;;;;;;5057810;28;20477;-72
2022/06/09 04:53:30;;;;;;;4.95;3.90;;;25.10;53.80;;;;;;5061393;28;20035;-72
2022/06/09 04:55:56;;;;;;;5.18;3.80;;;25.20;54.00;;;;;;5079505;28;20471;-72
2022/06/09 04:58:23;;;;;;;5.75;4.00;;;25.20;54.00;;;;;;5079388;28;20033;-72
2022/06/09 05:00:48;;;;;;;7.25;4.53;;;25.30;54.10;;;;;;5079330;28;20052;-73
2022/06/09 05:03:14;;;;;;;6.63;4.55;;;25.30;54.10;;;;;;5079242;28;20081;-71
2022/06/09 05:05:45;;;;;;;5.95;4.55;;;25.30;54.10;;;;;;5076691;28;20066;-69
2022/06/09 05:08:12;;;;;;;4.85;4.32;;;25.40;54.30;;;;;;5072908;28;20041;-71
2022/06/09 05:10:39;;;;;;;5.15;4.30;;;25.40;54.20;;;;;;5076484;28;20074;-72
2022/06/09 05:13:06;;;;;;;7.13;5.20;;;25.40;54.20;;;;;;5076424;28;20050;-73
2022/06/09 05:15:35;;;;;;;8.95;5.43;;;25.40;54.20;;;;;;5076334;28;20466;-73
2022/06/09 05:18:00;;;;;;;7.13;5.10;;;25.50;54.30;;;;;;5051534;28;20028;-74
2022/06/09 05:20:27;;;;;;;7.50;5.75;;;25.50;54.30;;;;;;5060607;28;20086;-74
2022/06/09 05:22:53;;;;;;;7.45;5.72;;;25.50;54.40;;;;;;5056126;28;20391;-74
2022/06/09 05:25:19;;;;;;;6.88;5.50;;;25.60;54.40;;;;;;5056086;28;20025;-72
2022/06/09 05:27:45;;;;;;;7.47;5.80;;;25.60;54.40;;;;;;5055745;28;20040;-76
2022/06/09 05:30:15;;;;;;;8.35;5.70;;;25.60;54.40;;;;;;5037758;28;20123;-76
2022/06/09 05:32:41;;;;;;;6.60;5.15;;;25.60;54.40;;;;;;5058451;28;20029;-75
2022/06/09 05:35:07;;;;;;;6.50;5.03;;;25.70;54.50;;;;;;5067022;28;20539;-76
2022/06/09 05:45:47;;;;;;;6.00;4.00;;;25.70;54.50;;;;;;5074425;28;20035;-75
2022/06/09 05:48:13;;;;;;;4.32;3.92;;;25.80;54.50;;;;;;5069804;28;20024;-74
2022/06/09 05:50:39;;;;;;;4.47;3.60;;;25.80;54.50;;;;;;5071840;28;20035;-75
2022/06/09 05:53:05;;;;;;;4.60;3.58;;;25.80;54.50;;;;;;5053788;28;20028;-75
2022/06/09 05:55:31;;;;;;;4.78;3.72;;;25.80;54.40;;;;;;5075002;28;20046;-74
2022/06/09 05:57:57;;;;;;;5.30;3.92;;;25.90;54.50;;;;;;5073400;28;20033;-75
2022/06/09 06:00:24;;;;;;;3.97;3.40;;;25.80;54.50;;;;;;5074842;28;20040;-75
2022/06/09 06:02:49;;;;;;;5.03;3.67;;;25.90;54.50;;;;;;5074436;28;20051;-75
2022/06/09 06:07:59;;;;;;;;;;;26.00;54.40;;;;;;5075293;28;20042;-75
2022/06/09 06:10:25;;;;;;;3.20;2.90;;;26.00;54.50;;;;;;5074875;28;19908;-75
2022/06/09 06:12:50;;;;;;;4.80;3.20;;;26.00;54.10;;;;;;5075379;28;20362;-75
2022/06/09 06:15:16;;;;;;;3.53;2.70;;;26.00;53.90;;;;;;5075415;28;20531;-73
2022/06/09 06:17:42;;;;;;;4.25;2.58;;;26.00;53.70;;;;;;5074740;28;20033;-74
2022/06/09 06:20:09;;;;;;;3.10;2.50;;;26.00;53.60;;;;;;5074568;28;20032;-75
2022/06/09 06:22:35;;;;;;;2.90;2.60;;;26.10;53.70;;;;;;5074743;28;20418;-74
2022/06/09 06:25:02;;;;;;;4.28;2.85;;;26.10;53.50;;;;;;5074702;28;20033;-74
2022/06/09 06:27:28;;;;;;;4.40;2.50;;;26.10;53.30;;;;;;5074585;28;20025;-74
2022/06/09 06:29:55;;;;;;;3.45;2.67;;;26.20;53.30;;;;;;5074715;28;20025;-74
2022/06/09 06:32:21;;;;;;;3.38;2.67;;;26.30;53.20;;;;;;5074727;28;20052;-74
2022/06/09 06:34:46;;;;;;;4.47;2.60;;;26.40;53.10;;;;;;5056618;28;20138;-75
2022/06/09 06:37:12;;;;;;;4.88;2.80;;;26.50;52.80;;;;;;5074432;28;20555;-75
2022/06/09 06:39:38;;;;;;;3.17;2.40;;;26.60;52.70;;;;;;5074522;28;20059;-75
2022/06/09 06:42:04;;;;;;;3.65;2.60;;;26.70;52.70;;;;;;5056957;28;20455;-75
2022/06/09 06:44:29;;;;;;;5.07;2.60;;;26.80;52.60;;;;;;5056356;28;20493;-74
2022/06/09 06:46:55;;;;;;;3.55;2.70;;;26.90;52.50;;;;;;5074232;28;20036;-74
2022/06/09 06:49:21;;;;;;;2.58;2.33;;;26.90;52.30;;;;;;5074352;28;20083;-77
2022/06/09 06:51:48;;;;;;;2.67;2.25;;;27.00;52.10;;;;;;5074088;28;20020;-74
2022/06/09 06:54:14;;;;;;;4.68;2.72;;;27.00;51.90;;;;;;5074219;28;20060;-74
2022/06/09 06:56:39;;;;;;;2.72;2.30;;;27.10;51.80;;;;;;5074150;28;20493;-74
2022/06/09 06:59:05;;;;;;;5.00;2.47;;;27.10;51.70;;;;;;5074011;28;20098;-74
2022/06/09 07:01:31;;;;;;;3.67;2.42;;;27.10;51.50;;;;;;5074103;28;20032;-74
2022/06/09 07:03:57;;;;;;;3.03;2.30;;;27.10;51.40;;;;;;5074005;28;20021;-75
2022/06/09 07:06:23;;;;;;;3.75;2.67;;;27.10;51.20;;;;;;5073797;28;20094;-73
2022/06/09 07:08:49;;;;;;;2.90;2.60;;;27.10;51.10;;;;;;5074177;28;20047;-73
2022/06/09 07:11:15;;;;;;;3.63;2.30;;;27.10;51.00;;;;;;5073990;28;20032;-74
2022/06/09 07:13:42;;;;;;;3.42;2.33;;;27.10;50.90;;;;;;5073835;28;20028;-74
2022/06/09 07:16:08;;;;;;;3.10;2.40;;;27.10;50.90;;;;;;5073878;28;20119;-74
2022/06/09 07:18:35;;;;;;;4.47;2.28;;;27.10;50.90;;;;;;5073925;28;20024;-74
2022/06/09 07:21:02;;;;;;;3.15;2.20;;;27.10;50.70;;;;;;5073538;28;20267;-74
2022/06/09 07:23:29;;;;;;;3.15;2.38;;;27.20;51.30;;;;;;5055686;28;20025;-74
2022/06/09 07:25:56;;;;;;;3.22;2.50;;;27.30;50.60;;;;;;5073802;28;20025;-73
2022/06/09 07:28:23;;;;;;;3.03;2.53;;;27.20;50.40;;;;;;5055613;28;20025;-75
2022/06/09 07:30:48;;;;;;;3.22;2.50;;;27.30;50.90;;;;;;5072993;28;20024;-74
2022/06/09 07:33:14;;;;;;;3.42;2.50;;;27.30;50.80;;;;;;5073839;28;20111;-73
2022/06/09 07:35:41;;;;;;;3.42;2.50;;;27.30;50.10;;;;;;5073549;28;20025;-74
2022/06/09 07:38:10;;;;;;;4.10;2.58;;;27.40;50.70;;;;;;5073768;28;20344;-74
2022/06/09 07:40:39;;;;;;;5.57;2.35;;;27.50;50.00;;;;;;5073823;28;20102;-74
2022/06/09 07:43:05;;;;;;;5.75;2.45;;;27.50;49.60;;;;;;5073699;28;20051;-74
2022/06/09 07:45:31;;;;;;;4.45;2.70;;;27.50;49.50;;;;;;5073140;28;20106;-74
2022/06/09 07:47:57;;;;;;;2.88;2.40;;;27.50;49.30;;;;;;5073616;28;20032;-74
2022/06/09 07:50:24;;;;;;;2.65;2.30;;;27.50;49.20;;;;;;5073466;28;20421;-74
2022/06/09 07:52:49;;;;;;;3.13;2.47;;;27.60;49.00;;;;;;5073645;28;20474;-74
2022/06/09 07:55:16;;;;;;;2.97;1.95;;;27.60;48.90;;;;;;5073529;28;20029;-74
2022/06/09 07:57:43;;;;;;;4.28;2.30;;;27.60;48.80;;;;;;5073442;28;20029;-74
2022/06/09 08:00:12;;;;;;;2.92;2.60;;;27.60;48.70;;;;;;5055552;28;20052;-74
2022/06/09 08:02:38;;;;;;;3.85;2.40;;;27.60;48.80;;;;;;5054932;28;20094;-74
2022/06/09 08:05:05;;;;;;;2.78;2.20;;;27.70;49.00;;;;;;5073210;28;20115;-75
2022/06/09 08:07:31;;;;;;;4.25;2.28;;;27.70;48.80;;;;;;5073099;28;20045;-74
2022/06/09 08:09:56;;;;;;;4.00;2.50;;;27.70;49.00;;;;;;5073130;28;20025;-74
2022/06/09 08:12:22;;;;;;;2.97;2.67;;;27.80;49.20;;;;;;5073185;28;20060;-75
2022/06/09 08:14:48;;;;;;;4.53;3.17;;;27.70;49.20;;;;;;5073359;28;20020;-75
2022/06/09 08:17:13;;;;;;;3.20;2.70;;;27.70;49.30;;;;;;5073158;28;20107;-75
2022/06/09 08:19:39;;;;;;;2.90;2.60;;;27.70;49.30;;;;;;5073109;28;20024;-74
2022/06/09 08:22:05;;;;;;;3.92;2.72;;;27.70;49.30;;;;;;5073370;28;20036;-74
2022/06/09 08:24:33;;;;;;;2.70;2.50;;;27.70;49.20;;;;;;5072821;28;20495;-75
2022/06/09 08:27:00;;;;;;;3.17;2.88;;;27.80;49.20;;;;;;5054952;28;20421;-74
2022/06/09 08:29:26;;;;;;;2.78;2.55;;;27.70;49.10;;;;;;5072957;28;20056;-74
2022/06/09 08:31:52;;;;;;;2.70;2.50;;;27.60;49.00;;;;;;5054760;28;20025;-74
2022/06/09 08:34:18;;;;;;;3.72;2.42;;;27.70;48.90;;;;;;5072763;28;20115;-75
2022/06/09 08:36:44;;;;;;;2.85;2.40;;;27.60;48.90;;;;;;5073013;28;20068;-74
2022/06/09 08:39:10;;;;;;;3.25;2.35;;;27.60;48.80;;;;;;5072970;28;20492;-74
2022/06/09 08:41:48;;;;;;;2.80;2.20;;;27.60;48.70;;;;;;5074521;28;20024;-74
2022/06/09 08:44:29;;;;;;;3.45;2.13;;;27.60;48.30;;;;;;5076526;28;20025;-74
2022/06/09 08:47:14;;;;;;;1.80;1.70;;;27.60;48.20;;;;;;5077036;28;20115;-74
2022/06/09 08:50:13;;;;;;;2.65;2.40;;;27.60;47.60;;;;;;5058501;28;20090;-74
2022/06/09 08:53:01;;;;;;;2.20;2.00;;;27.60;47.80;;;;;;5076455;28;20031;-74
2022/06/09 08:55:47;;;;;;;2.17;1.98;;;27.60;47.40;;;;;;5077068;28;20103;-74
2022/06/09 08:58:34;;;;;;;3.10;2.10;;;27.60;47.20;;;;;;5076388;28;20041;-75
2022/06/09 09:01:28;;;;;;;2.40;1.90;;;27.60;47.00;;;;;;5076137;28;20035;-74
2022/06/09 09:04:14;;;;;;;2.17;1.98;;;27.60;46.80;;;;;;5061984;28;20037;-75
2022/06/09 09:06:43;;;;;;;3.13;2.50;;;27.60;47.10;;;;;;5076059;28;20076;-75
2022/06/09 09:09:15;;;;;;;2.42;2.22;;;27.60;47.00;;;;;;5076506;28;20032;-75
2022/06/09 09:11:47;;;;;;;3.05;1.98;;;27.60;47.00;;;;;;5076027;28;20032;-75
2022/06/09 09:14:18;;;;;;;2.53;1.90;;;27.60;47.00;;;;;;5076360;28;20459;-74
2022/06/09 09:16:58;;;;;;;3.25;2.13;;;27.60;47.10;;;;;;5076110;28;20056;-75
2022/06/09 09:19:51;;;;;;;2.70;2.00;;;27.60;47.00;;;;;;5075877;28;20074;-74
2022/06/09 09:22:17;;;;;;;3.15;2.13;;;27.60;47.00;;;;;;5076170;28;20520;-73
2022/06/09 09:25:09;;;;;;;4.63;2.00;;;27.60;47.20;;;;;;5057886;28;20028;-74
2022/06/09 09:28:01;;;;;;;4.05;1.95;;;27.60;47.00;;;;;;5066484;28;20352;-74
2022/06/09 09:30:32;;;;;;;2.15;1.95;;;27.60;47.20;;;;;;5075229;28;20123;-74
2022/06/09 09:32:58;;;;;;;2.80;1.70;;;27.60;47.30;;;;;;5075546;28;20071;-74
2022/06/09 09:35:31;;;;;;;2.55;1.65;;;27.60;47.20;;;;;;5075841;28;20028;-73
2022/06/09 09:37:59;;;;;;;1.97;1.80;;;27.60;47.00;;;;;;5058233;28;20386;-75
2022/06/09 09:40:44;;;;;;;1.92;1.83;;;27.60;47.00;;;;;;5075410;28;20277;-73
2022/06/09 09:43:21;;;;;;;2.42;1.90;;;27.70;47.00;;;;;;5076038;28;20051;-74
2022/06/09 09:45:55;;;;;;;1.65;1.55;;;27.70;46.60;;;;;;5075329;28;20033;-74
2022/06/09 09:48:21;;;;;;;3.50;2.00;;;27.70;46.90;;;;;;5057961;28;20425;-74
2022/06/09 09:50:48;;;;;;;2.20;1.70;;;27.70;46.90;;;;;;5075436;28;20029;-75
2022/06/09 09:53:31;;;;;;;2.33;1.70;;;27.70;47.00;;;;;;5056998;28;20038;-74
2022/06/09 09:56:15;;;;;;;1.45;1.35;;;27.70;46.90;;;;;;5057375;28;20035;-76
2022/06/09 09:59:03;;;;;;;1.77;1.67;;;27.70;47.00;;;;;;5075287;28;20036;-74
2022/06/09 10:08:35;;;;;;;2.60;1.80;;;27.80;46.80;;;;;;5057306;28;20120;-74
2022/06/09 10:10:16;;;;;;;1.75;1.40;;;27.90;46.90;;;;;;5075672;28;20039;-75
2022/06/09 10:12:44;;;;;;;1.83;1.67;;;28.00;46.80;;;;;;5075657;28;20032;-75
2022/06/09 10:15:10;;;;;;;3.65;1.80;;;28.00;46.80;;;;;;5075044;28;20027;-75
2022/06/09 10:17:44;;;;;;;2.38;1.50;;;28.10;46.80;;;;;;5074986;28;20033;-75
2022/06/09 10:20:27;;;;;;;3.05;1.73;;;28.20;46.80;;;;;;5057263;28;20031;-75
2022/06/09 10:23:15;;;;;;;2.22;1.95;;;28.20;46.70;;;;;;5075094;28;20474;-75
2022/06/09 10:25:49;;;;;;;4.13;1.80;;;28.30;46.60;;;;;;5075039;28;20033;-75
2022/06/09 10:28:46;;;;;;;1.90;1.60;;;28.40;46.60;;;;;;5074644;28;20036;-75
2022/06/09 10:31:34;;;;;;;1.50;1.40;;;28.50;46.70;;;;;;5075431;28;20036;-74
2022/06/09 10:34:22;;;;;;;1.88;1.60;;;28.50;46.60;;;;;;5074830;28;20491;-75
2022/06/09 10:37:13;;;;;;;1.83;1.38;;;28.50;46.70;;;;;;5074585;28;20032;-75
2022/06/09 10:40:05;;;;;;;1.83;1.50;;;28.60;46.60;;;;;;5074561;28;20052;-74
2022/06/09 10:42:39;;;;;;;1.80;1.70;;;28.60;46.60;;;;;;5056465;28;20074;-75
2022/06/09 10:45:19;;;;;;;1.83;1.73;;;28.60;46.60;;;;;;5074589;28;20111;-75
2022/06/09 10:57:27;;;;;;;1.88;1.50;;;28.70;46.60;;;;;;5074469;28;20079;-75
2022/06/09 10:59:53;;;;;;;;;;;28.60;46.50;;;;;;5074520;28;20028;-74
2022/06/09 11:02:22;;;;;;;1.55;1.45;;;28.60;46.00;;;;;;5074701;28;19911;-75
2022/06/09 11:04:50;;;;;;;1.55;1.40;;;28.60;46.40;;;;;;5074294;28;20031;-75
2022/06/09 11:07:16;;;;;;;2.20;1.60;;;28.60;46.30;;;;;;5074327;28;20087;-75
2022/06/09 11:10:10;;;;;;;1.88;1.52;;;28.60;46.20;;;;;;5056276;28;20064;-75
2022/06/09 11:13:10;;;;;;;1.42;1.33;;;28.60;46.10;;;;;;5074472;28;20025;-74
2022/06/09 11:15:49;;;;;;;1.75;1.33;;;28.50;45.80;;;;;;5056080;28;20037;-74
2022/06/09 11:18:21;;;;;;;1.60;1.50;;;28.50;45.00;;;;;;5074100;28;20071;-74
2022/06/09 11:21:05;;;;;;;1.40;1.30;;;28.40;45.70;;;;;;5074089;28;20025;-75
2022/06/09 11:24:04;;;;;;;1.60;1.50;;;28.30;45.50;;;;;;5056285;28;20031;-75
2022/06/09 11:26:50;;;;;;;2.65;1.60;;;28.30;45.10;;;;;;5073765;28;20025;-75
2022/06/09 11:29:31;;;;;;;1.58;1.48;;;28.30;45.50;;;;;;5073903;28;20622;-75
2022/06/09 11:32:24;;;;;;;2.10;1.40;;;28.20;45.00;;;;;;5073812;28;20033;-75
2022/06/09 11:35:08;;;;;;;1.38;1.27;;;28.20;45.20;;;;;;5055105;28;20025;-76
2022/06/09 11:37:44;;;;;;;1.52;1.42;;;28.20;45.10;;;;;;5073832;28;20119;-74
2022/06/09 11:40:32;;;;;;;1.40;1.30;;;28.10;45.00;;;;;;5074055;28;20090;-74
2022/06/09 11:43:16;;;;;;;1.58;1.48;;;28.10;44.90;;;;;;5055656;28;20111;-74
2022/06/09 11:45:45;;;;;;;1.42;1.33;;;28.10;44.70;;;;;;5073293;28;20158;-74
2022/06/09 11:48:37;;;;;;;2.70;1.50;;;28.10;44.80;;;;;;5073613;28;20086;-74
2022/06/09 11:51:04;;;;;;;2.30;1.33;;;28.10;44.60;;;;;;5059204;28;20048;-74
2022/06/09 11:53:35;;;;;;;2.05;1.52;;;28.10;44.60;;;;;;5055586;28;20036;-75
2022/06/09 11:56:34;;;;;;;1.52;1.42;;;28.10;44.60;;;;;;5055583;28;20031;-75
2022/06/09 11:59:15;;;;;;;2.38;1.60;;;28.10;44.10;;;;;;5073669;28;20017;-75
2022/06/09 12:01:44;;;;;;;1.90;1.70;;;28.10;44.40;;;;;;5073541;28;20023;-74
2022/06/09 12:04:21;;;;;;;1.63;1.52;;;28.20;44.30;;;;;;5055657;28;20112;-75
2022/06/09 12:07:10;;;;;;;2.20;2.00;;;28.20;44.10;;;;;;5055241;28;20036;-74
2022/06/09 12:10:03;;;;;;;1.83;1.60;;;28.30;43.80;;;;;;5073110;28;20524;-75
2022/06/09 12:12:38;;;;;;;1.70;1.60;;;28.30;43.90;;;;;;5073336;28;20103;-74
2022/06/09 12:15:28;;;;;;;2.38;1.70;;;28.40;44.00;;;;;;5055114;28;20032;-74
2022/06/09 12:18:07;;;;;;;1.58;1.48;;;28.40;43.50;;;;;;5043038;28;20047;-74
2022/06/09 12:20:55;;;;;;;1.30;1.20;;;28.50;43.90;;;;;;5059351;28;20028;-75
2022/06/09 12:23:29;;;;;;;1.98;1.83;;;28.50;43.90;;;;;;5076303;28;20135;-74
2022/06/09 12:26:10;;;;;;;1.83;1.73;;;28.60;43.90;;;;;;5076874;28;20473;-75
2022/06/09 12:28:54;;;;;;;1.80;1.70;;;28.60;43.70;;;;;;5077374;28;20431;-74
2022/06/09 12:31:30;;;;;;;2.17;1.98;;;28.70;43.70;;;;;;5076841;28;20071;-75
2022/06/09 12:34:10;;;;;;;2.08;1.70;;;28.70;43.60;;;;;;5059093;28;20037;-73
2022/06/09 12:36:58;;;;;;;4.97;2.10;;;28.80;43.60;;;;;;5077231;28;20039;-73
2022/06/09 12:39:24;;;;;;;3.20;1.77;;;28.80;43.40;;;;;;5059028;28;20087;-75
2022/06/09 12:41:59;;;;;;;4.22;2.20;;;28.90;43.60;;;;;;5076627;28;20451;-76
2022/06/09 12:44:42;;;;;;;2.25;2.05;;;28.90;43.40;;;;;;5059215;28;20035;-75
2022/06/09 12:47:13;;;;;;;4.85;2.38;;;29.00;43.40;;;;;;5059040;28;20032;-75
2022/06/09 12:49:42;;;;;;;2.50;2.30;;;29.00;43.30;;;;;;5058713;28;20119;-75
2022/06/09 12:52:24;;;;;;;3.70;2.33;;;29.00;43.30;;;;;;5076602;28;20020;-74
2022/06/09 12:55:14;;;;;;;2.33;2.13;;;29.10;42.90;;;;;;5076312;28;20020;-74
2022/06/09 12:57:51;;;;;;;4.30;2.65;;;29.20;42.80;;;;;;5058903;28;20137;-74
2022/06/09 13:00:18;;;;;;;4.40;2.65;;;29.30;43.00;;;;;;5058824;28;20031;-75
2022/06/09 13:02:45;;;;;;;3.35;2.83;;;29.30;42.80;;;;;;5058311;28;20028;-74
2022/06/09 13:05:43;;;;;;;3.45;2.55;;;29.40;42.70;;;;;;5058441;28;20091;-75
2022/06/09 13:08:23;;;;;;;3.33;2.90;;;29.60;42.50;;;;;;5072425;28;20060;-74
2022/06/09 13:11:03;;;;;;;4.90;3.50;;;29.60;42.40;;;;;;5076270;28;20111;-74
2022/06/09 13:13:44;;;;;;;4.32;3.22;;;29.70;42.20;;;;;;5076857;28;20040;-75
2022/06/09 13:16:23;;;;;;;4.70;3.20;;;29.90;42.10;;;;;;5076269;28;20031;-74
2022/06/09 13:19:03;;;;;;;4.82;3.50;;;30.00;41.70;;;;;;5076529;28;20025;-74
2022/06/09 13:21:38;;;;;;;4.45;3.20;;;30.10;41.90;;;;;;5075835;28;20040;-74
2022/06/09 13:24:07;;;;;;;6.10;3.65;;;30.20;41.80;;;;;;5075957;28;20032;-74
2022/06/09 13:26:38;;;;;;;4.53;3.22;;;30.40;41.80;;;;;;5075596;28;20028;-74
2022/06/09 13:29:30;;;;;;;5.93;3.55;;;30.50;41.60;;;;;;5056578;28;20490;-74
2022/06/09 13:32:19;;;;;;;4.00;3.42;;;30.70;41.40;;;;;;5057216;28;20379;-74
2022/06/09 13:34:47;;;;;;;3.85;3.45;;;31.10;40.90;;;;;;5075732;28;20370;-74
2022/06/09 13:37:22;;;;;;;5.85;3.63;;;31.60;41.00;;;;;;5075444;28;20471;-74
2022/06/09 13:40:10;;;;;;;4.32;3.22;;;32.20;40.70;;;;;;5076127;28;20392;-74